createdAt,value
2019-04-07T00:02:22.415Z,50.63
2019-04-07T00:04:51.409Z,48.77
2019-04-07T00:07:20.318Z,50.50
2019-04-07T00:09:49.162Z,50.17
2019-04-07T00:12:17.851Z,51.20
2019-04-07T00:14:46.660Z,51.07
2019-04-07T00:17:15.599Z,50.60
2019-04-07T00:19:44.757Z,53.53
2019-04-07T00:22:13.574Z,50.00
2019-04-07T00:24:42.339Z,52.40
2019-04-07T00:27:11.378Z,48.70
2019-04-07T00:29:40.129Z,49.93
2019-04-07T00:32:08.803Z,52.20
2019-04-07T00:34:38.120Z,52.00
2019-04-07T00:37:07.348Z,51.70
2019-04-07T00:39:36.344Z,49.37
2019-04-07T00:42:05.124Z,50.93
2019-04-07T00:44:34.395Z,49.53
2019-04-07T00:47:03.316Z,47.97
2019-04-07T00:49:32.307Z,50.73
2019-04-07T00:52:04.938Z,50.80
2019-04-07T00:54:33.874Z,52.20
2019-04-07T00:57:02.678Z,50.60
2019-04-07T00:59:31.980Z,53.73
2019-04-07T01:02:01.464Z,52.90
2019-04-07T01:04:30.688Z,52.77
2019-04-07T01:07:00.181Z,52.23
2019-04-07T01:09:28.977Z,50.93
2019-04-07T01:11:57.738Z,46.90
2019-04-07T01:14:26.451Z,49.67
2019-04-07T01:16:55.126Z,48.67
2019-04-07T01:19:24.358Z,50.37
2019-04-07T01:21:53.589Z,49.47
2019-04-07T01:24:22.640Z,48.80
2019-04-07T01:26:51.568Z,49.60
2019-04-07T01:29:20.942Z,53.80
2019-04-07T01:31:50.584Z,50.47
2019-04-07T01:34:19.674Z,53.30
2019-04-07T01:36:49.173Z,54.27
2019-04-07T01:39:19.459Z,53.37
2019-04-07T01:41:50.388Z,55.03
2019-04-07T01:44:20.969Z,53.73
2019-04-07T01:46:51.319Z,58.17
2019-04-07T01:49:22.155Z,57.70
2019-04-07T01:51:50.949Z,57.33
2019-04-07T01:54:21.765Z,56.80
2019-04-07T01:56:52.584Z,58.57
2019-04-07T01:59:24.454Z,57.20
2019-04-07T02:01:53.888Z,60.07
2019-04-07T02:04:24.539Z,59.67
2019-04-07T02:06:54.390Z,60.20
2019-04-07T02:09:23.656Z,59.47
2019-04-07T02:11:54.152Z,57.60
2019-04-07T02:14:24.061Z,59.73
2019-04-07T02:16:55.265Z,59.97
2019-04-07T02:19:26.286Z,58.97
2019-04-07T02:21:56.679Z,58.90
2019-04-07T02:24:27.036Z,58.47
2019-04-07T02:26:57.638Z,58.80
2019-04-07T02:29:28.138Z,57.47
2019-04-07T02:31:58.651Z,58.27
2019-04-07T02:34:28.404Z,56.73
2019-04-07T02:36:58.742Z,54.57
2019-04-07T02:39:29.377Z,59.37
2019-04-07T02:42:00.347Z,53.67
2019-04-07T02:44:31.595Z,54.77
2019-04-07T02:47:03.036Z,55.30
2019-04-07T02:49:33.875Z,54.10
2019-04-07T02:52:04.404Z,56.47
2019-04-07T02:54:33.045Z,53.57
2019-04-07T02:57:03.509Z,52.73
2019-04-07T02:59:34.306Z,54.63
2019-04-07T03:02:03.276Z,53.60
2019-04-07T03:04:32.876Z,54.17
2019-04-07T03:07:02.951Z,52.80
2019-04-07T03:09:33.422Z,52.37
2019-04-07T03:12:05.018Z,52.40
2019-04-07T03:14:36.049Z,53.60
2019-04-07T03:17:08.249Z,53.70
2019-04-07T03:19:39.271Z,52.97
2019-04-07T03:22:09.660Z,52.80
2019-04-07T03:24:40.449Z,53.43
2019-04-07T03:27:10.865Z,51.27
2019-04-07T03:29:41.761Z,52.57
2019-04-07T03:32:16.533Z,53.23
2019-04-07T03:34:44.969Z,57.23
2019-04-07T03:37:30.398Z,52.23
2019-04-07T03:39:47.400Z,60.60
2019-04-07T03:42:17.894Z,57.87
2019-04-07T03:44:48.986Z,58.27
2019-04-07T03:47:20.240Z,59.47
2019-04-07T03:49:50.957Z,57.77
2019-04-07T03:52:21.498Z,58.50
2019-04-07T03:54:52.760Z,61.50
2019-04-07T03:57:24.142Z,59.47
2019-04-07T03:59:55.425Z,56.67
2019-04-07T04:02:26.458Z,56.17
2019-04-07T04:04:57.557Z,56.87
2019-04-07T04:07:32.335Z,53.67
2019-04-07T04:10:00.973Z,56.63
2019-04-07T04:12:31.669Z,55.37
2019-04-07T04:15:03.430Z,58.30
2019-04-07T04:17:32.752Z,57.40
2019-04-07T04:20:01.588Z,57.27
2019-04-07T04:22:30.779Z,56.70
2019-04-07T04:25:00.506Z,56.33
2019-04-07T04:27:30.098Z,55.40
2019-04-07T04:29:58.881Z,54.33
2019-04-07T04:32:28.698Z,56.17
2019-04-07T04:34:58.486Z,56.57
2019-04-07T04:37:41.233Z,62.53
2019-04-07T04:39:57.689Z,59.73
2019-04-07T04:42:26.835Z,61.00
2019-04-07T04:44:56.573Z,60.00
2019-04-07T04:47:25.251Z,62.17
2019-04-07T04:49:53.974Z,61.93
2019-04-07T04:52:22.735Z,64.10
2019-04-07T04:54:51.792Z,56.47
2019-04-07T04:57:20.741Z,58.60
2019-04-07T04:59:49.467Z,52.80
2019-04-07T05:02:18.885Z,53.97
2019-04-07T05:04:47.746Z,52.17
2019-04-07T05:07:16.816Z,53.50
2019-04-07T05:09:49.981Z,48.97
2019-04-07T05:12:16.326Z,50.63
2019-04-07T05:14:45.549Z,50.47
2019-04-07T05:17:15.229Z,48.90
2019-04-07T05:19:44.345Z,48.90
2019-04-07T05:22:13.654Z,48.60
2019-04-07T05:24:42.705Z,45.77
2019-04-07T05:27:11.583Z,46.67
2019-04-07T05:29:40.257Z,40.00
2019-04-07T05:32:09.599Z,40.13
2019-04-07T05:34:38.628Z,40.60
2019-04-07T05:37:07.620Z,43.23
2019-04-07T05:39:37.195Z,39.07
2019-04-07T05:42:05.979Z,35.97
2019-04-07T05:44:35.557Z,34.60
2019-04-07T05:47:04.486Z,33.07
2019-04-07T05:49:33.389Z,33.87
2019-04-07T05:52:05.392Z,34.80
2019-04-07T05:54:32.867Z,35.00
2019-04-07T05:57:02.405Z,33.80
2019-04-07T05:59:31.933Z,32.53
2019-04-07T06:02:02.570Z,33.40
2019-04-07T06:04:31.494Z,35.27
2019-04-07T06:07:00.490Z,34.93
2019-04-07T06:09:29.637Z,31.00
2019-04-07T06:11:58.737Z,32.57
2019-04-07T06:14:27.532Z,35.30
2019-04-07T06:16:56.421Z,32.47
2019-04-07T06:19:25.178Z,32.57
2019-04-07T06:21:53.916Z,33.20
2019-04-07T06:24:22.699Z,31.87
2019-04-07T06:26:51.353Z,31.63
2019-04-07T06:29:20.088Z,31.83
2019-04-07T06:31:49.471Z,30.30
2019-04-07T06:34:18.544Z,30.30
2019-04-07T06:36:51.524Z,29.27
2019-04-07T06:39:19.267Z,29.33
2019-04-07T06:41:48.890Z,31.07
2019-04-07T06:44:20.943Z,30.67
2019-04-07T06:46:49.745Z,29.90
2019-04-07T06:49:19.684Z,29.30
2019-04-07T06:51:50.186Z,28.37
2019-04-07T06:54:22.226Z,29.73
2019-04-07T06:56:53.786Z,28.00
2019-04-07T06:59:25.075Z,27.30
2019-04-07T07:01:58.103Z,25.53
2019-04-07T07:04:27.581Z,27.27
2019-04-07T07:06:58.143Z,26.60
2019-04-07T07:09:31.835Z,25.93
2019-04-07T07:12:00.700Z,26.07
2019-04-07T07:14:38.135Z,27.47
2019-04-07T07:17:03.392Z,27.03
2019-04-07T07:19:33.670Z,27.67
2019-04-07T07:22:02.369Z,25.73
2019-04-07T07:24:31.109Z,25.60
2019-04-07T07:27:00.354Z,25.60
2019-04-07T07:29:29.951Z,25.00
2019-04-07T07:32:03.556Z,26.40
2019-04-07T07:34:29.515Z,25.33
2019-04-07T07:36:58.991Z,24.53
2019-04-07T07:39:29.490Z,24.10
2019-04-07T07:41:58.449Z,22.37
2019-04-07T07:44:27.791Z,23.77
2019-04-07T07:46:57.077Z,22.53
2019-04-07T07:49:28.128Z,22.30
2019-04-07T07:51:56.979Z,20.80
2019-04-07T07:54:28.205Z,21.93
2019-04-07T07:56:57.066Z,22.67
2019-04-07T07:59:25.853Z,21.57
2019-04-07T08:01:54.619Z,20.97
2019-04-07T08:04:26.428Z,19.80
2019-04-07T08:06:54.470Z,19.67
2019-04-07T08:09:25.914Z,19.30
2019-04-07T08:11:54.360Z,18.90
2019-04-07T08:14:23.210Z,19.00
2019-04-07T08:16:52.284Z,20.23
2019-04-07T08:19:24.952Z,18.80
2019-04-07T08:21:53.008Z,19.07
2019-04-07T08:24:21.902Z,18.60
2019-04-07T08:26:50.584Z,18.10
2019-04-07T08:29:19.347Z,18.07
2019-04-07T08:31:51.474Z,16.97
2019-04-07T08:34:18.947Z,16.93
2019-04-07T08:36:48.166Z,17.73
2019-04-07T08:39:23.709Z,17.07
2019-04-07T08:41:48.217Z,15.43
2019-04-07T08:44:17.177Z,15.57
2019-04-07T08:46:45.951Z,14.50
2019-04-07T08:49:14.752Z,14.67
2019-04-07T08:51:43.851Z,15.70
2019-04-07T08:54:15.757Z,15.27
2019-04-07T08:56:43.643Z,13.60
2019-04-07T08:59:16.171Z,14.07
2019-04-07T09:01:43.478Z,13.13
2019-04-07T09:04:15.132Z,12.67
2019-04-07T09:06:42.779Z,11.87
2019-04-07T09:09:12.146Z,11.40
2019-04-07T09:11:42.392Z,11.90
2019-04-07T09:14:11.445Z,11.50
2019-04-07T09:16:41.971Z,13.20
2019-04-07T09:19:12.487Z,13.70
2019-04-07T09:21:42.849Z,13.50
2019-04-07T09:24:12.522Z,13.23
2019-04-07T09:26:43.129Z,12.57
2019-04-07T09:29:14.169Z,13.90
2019-04-07T09:31:43.213Z,14.40
2019-04-07T09:34:13.649Z,14.30
2019-04-07T09:36:44.060Z,15.07
2019-04-07T09:39:14.574Z,15.23
2019-04-07T09:41:45.163Z,14.63
2019-04-07T09:44:15.936Z,13.73
2019-04-07T09:46:49.375Z,15.40
2019-04-07T09:49:21.267Z,15.00
2019-04-07T09:51:49.970Z,14.13
2019-04-07T09:54:23.109Z,15.10
2019-04-07T09:56:52.386Z,14.50
2019-04-07T09:59:22.881Z,15.33
2019-04-07T10:01:54.060Z,14.13
2019-04-07T10:04:25.531Z,13.73
2019-04-07T10:06:57.379Z,14.20
2019-04-07T10:09:27.982Z,14.10
2019-04-07T10:11:58.417Z,12.93
2019-04-07T10:14:27.285Z,14.53
2019-04-07T10:16:57.565Z,13.60
2019-04-07T10:19:28.265Z,13.43
2019-04-07T10:22:01.161Z,15.03
2019-04-07T10:24:31.427Z,14.43
2019-04-07T10:27:02.069Z,13.80
2019-04-07T10:29:33.060Z,12.63
2019-04-07T10:32:03.643Z,11.63
2019-04-07T10:34:33.972Z,12.97
2019-04-07T10:37:04.826Z,11.77
2019-04-07T10:39:35.004Z,12.40
2019-04-07T10:42:05.495Z,13.70
2019-04-07T10:44:35.879Z,12.70
2019-04-07T10:47:07.151Z,13.43
2019-04-07T10:49:36.215Z,11.70
2019-04-07T10:52:06.899Z,12.70
2019-04-07T10:54:38.131Z,13.10
2019-04-07T10:57:08.669Z,13.13
2019-04-07T10:59:37.298Z,11.90
2019-04-07T11:02:08.338Z,11.57
2019-04-07T11:04:38.879Z,12.80
2019-04-07T11:07:09.218Z,14.83
2019-04-07T11:09:39.531Z,14.50
2019-04-07T11:12:09.953Z,14.23
2019-04-07T11:14:40.286Z,15.60
2019-04-07T11:17:09.977Z,15.67
2019-04-07T11:19:40.408Z,15.63
2019-04-07T11:22:10.737Z,15.77
2019-04-07T11:24:41.435Z,14.30
2019-04-07T11:27:13.010Z,15.30
2019-04-07T11:29:43.687Z,14.90
2019-04-07T11:32:14.123Z,18.13
2019-04-07T11:34:46.685Z,17.93
2019-04-07T11:37:16.101Z,17.50
2019-04-07T11:39:46.437Z,16.30
2019-04-07T11:42:17.073Z,18.30
2019-04-07T11:44:47.414Z,17.50
2019-04-07T11:47:18.575Z,16.53
2019-04-07T11:49:49.625Z,19.13
2019-04-07T11:52:20.062Z,18.97
2019-04-07T11:54:51.147Z,18.60
2019-04-07T11:57:21.603Z,19.30
2019-04-07T11:59:52.374Z,17.80
2019-04-07T12:02:24.354Z,17.40
2019-04-07T12:04:55.496Z,16.83
2019-04-07T12:07:25.876Z,18.07
2019-04-07T12:09:56.918Z,19.03
2019-04-07T12:12:26.971Z,17.73
2019-04-07T12:14:57.797Z,18.00
2019-04-07T12:17:28.784Z,18.10
2019-04-07T12:19:59.224Z,20.13
2019-04-07T12:22:30.642Z,18.43
2019-04-07T12:25:05.443Z,19.50
2019-04-07T12:27:35.712Z,19.50
2019-04-07T12:30:10.076Z,17.10
2019-04-07T12:32:41.419Z,18.30
2019-04-07T12:35:12.977Z,17.77
2019-04-07T12:37:44.550Z,17.60
2019-04-07T12:40:15.256Z,18.90
2019-04-07T12:42:45.592Z,17.70
2019-04-07T12:45:16.918Z,16.60
2019-04-07T12:47:47.475Z,16.40
2019-04-07T12:50:18.849Z,18.23
2019-04-07T12:52:51.874Z,18.10
2019-04-07T12:55:22.381Z,17.63
2019-04-07T12:57:52.966Z,16.57
2019-04-07T13:00:24.866Z,18.00
2019-04-07T13:02:55.578Z,17.80
2019-04-07T13:05:26.040Z,17.40
2019-04-07T13:07:56.549Z,15.33
2019-04-07T13:10:26.909Z,16.40
2019-04-07T13:12:59.207Z,13.93
2019-04-07T13:15:30.328Z,15.37
2019-04-07T13:18:03.633Z,16.10
2019-04-07T13:20:33.612Z,16.07
2019-04-07T13:23:04.854Z,16.10
2019-04-07T13:25:35.282Z,16.07
2019-04-07T13:28:06.446Z,15.57
2019-04-07T13:30:35.655Z,15.13
2019-04-07T13:33:05.578Z,17.70
2019-04-07T13:35:35.922Z,15.63
2019-04-07T13:38:06.635Z,14.33
2019-04-07T13:40:36.996Z,16.00
2019-04-07T13:43:07.879Z,16.20
2019-04-07T13:45:36.679Z,16.47
2019-04-07T13:48:07.742Z,15.20
2019-04-07T13:50:38.305Z,14.90
2019-04-07T13:53:08.891Z,14.40
2019-04-07T13:55:42.641Z,14.77
2019-04-07T13:58:11.982Z,15.20
2019-04-07T14:00:45.332Z,14.77
2019-04-07T14:03:15.564Z,14.60
2019-04-07T14:05:46.427Z,16.07
2019-04-07T14:08:16.929Z,14.87
2019-04-07T14:10:47.196Z,15.30
2019-04-07T14:13:17.702Z,14.83
2019-04-07T14:15:48.526Z,15.10
2019-04-07T14:18:19.178Z,14.33
2019-04-07T14:20:49.712Z,13.23
2019-04-07T14:23:20.021Z,15.40
2019-04-07T14:25:53.603Z,16.20
2019-04-07T14:28:22.384Z,15.40
2019-04-07T14:30:53.338Z,16.60
2019-04-07T14:33:23.115Z,15.70
2019-04-07T14:35:54.289Z,16.00
2019-04-07T14:38:25.500Z,15.73
2019-04-07T14:40:56.412Z,15.20
2019-04-07T14:43:27.030Z,14.40
2019-04-07T14:45:57.968Z,15.80
2019-04-07T14:48:28.591Z,16.43
2019-04-07T14:50:59.658Z,15.67
2019-04-07T14:53:30.372Z,17.30
2019-04-07T14:56:04.297Z,15.70
2019-04-07T14:58:33.158Z,14.50
2019-04-07T15:01:05.884Z,16.27
2019-04-07T15:03:35.186Z,15.43
2019-04-07T15:06:04.292Z,16.30
2019-04-07T15:08:33.012Z,16.03
2019-04-07T15:11:03.363Z,14.90
2019-04-07T15:13:32.178Z,16.27
2019-04-07T15:16:00.976Z,15.73
2019-04-07T15:18:29.816Z,15.63
2019-04-07T15:20:59.386Z,15.20
2019-04-07T15:23:30.948Z,15.47
2019-04-07T15:25:59.071Z,15.63
2019-04-07T15:28:30.686Z,17.63
2019-04-07T15:30:58.908Z,16.23
2019-04-07T15:33:32.079Z,17.70
2019-04-07T15:35:58.932Z,16.40
2019-04-07T15:38:28.493Z,16.60
2019-04-07T15:40:58.902Z,17.23
2019-04-07T15:43:27.985Z,16.87
2019-04-07T15:45:57.675Z,15.40
2019-04-07T15:48:27.145Z,14.50
2019-04-07T15:50:56.218Z,16.47
2019-04-07T15:53:25.639Z,16.30
2019-04-07T15:56:02.293Z,18.47
2019-04-07T15:58:28.175Z,18.40
2019-04-07T16:00:55.840Z,17.80
2019-04-07T16:03:24.717Z,18.57
2019-04-07T16:05:53.497Z,18.10
2019-04-07T16:08:26.028Z,17.77
2019-04-07T16:10:53.645Z,18.17
2019-04-07T16:13:23.892Z,19.80
2019-04-07T16:15:54.950Z,20.30
2019-04-07T16:18:23.707Z,21.30
2019-04-07T16:20:53.010Z,21.63
2019-04-07T16:23:22.300Z,21.00
2019-04-07T16:25:51.258Z,32.50
2019-04-07T16:28:20.756Z,21.33
2019-04-07T16:30:51.984Z,18.67
2019-04-07T16:33:20.592Z,20.03
2019-04-07T16:35:54.023Z,21.70
2019-04-07T16:38:20.631Z,20.00
2019-04-07T16:40:50.202Z,19.50
2019-04-07T16:43:20.107Z,21.17
2019-04-07T16:45:49.422Z,20.80
2019-04-07T16:48:19.741Z,21.10
2019-04-07T16:50:54.744Z,21.70
2019-04-07T16:53:28.084Z,20.50
2019-04-07T16:55:57.536Z,22.60
2019-04-07T16:58:30.595Z,22.10
2019-04-07T17:00:59.039Z,21.30
2019-04-07T17:03:29.461Z,21.57
2019-04-07T17:06:00.304Z,22.07
2019-04-07T17:08:29.969Z,22.80
2019-04-07T17:10:59.580Z,21.77
2019-04-07T17:13:37.435Z,22.27
2019-04-07T17:16:00.870Z,21.40
2019-04-07T17:18:33.330Z,22.17
2019-04-07T17:21:02.341Z,21.30
2019-04-07T17:23:31.123Z,20.80
2019-04-07T17:26:03.224Z,22.67
2019-04-07T17:28:30.681Z,21.57
2019-04-07T17:31:00.228Z,23.37
2019-04-07T17:33:29.536Z,21.87
2019-04-07T17:36:02.447Z,22.93
2019-04-07T17:38:36.350Z,23.00
2019-04-07T17:41:07.980Z,22.67
2019-04-07T17:43:49.000Z,21.97
2019-04-07T17:46:11.135Z,23.40
2019-04-07T17:48:49.496Z,23.07
2019-04-07T17:51:12.134Z,23.80
2019-04-07T18:17:11.831Z,20.90
2019-04-07T18:19:43.586Z,20.67
2019-04-07T18:22:18.201Z,20.87
2019-04-07T18:24:46.187Z,21.13
2019-04-07T18:27:19.071Z,20.70
2019-04-07T18:29:49.159Z,20.53
2019-04-07T18:32:19.678Z,23.27
2019-04-07T18:34:51.684Z,22.13
2019-04-07T18:37:25.208Z,22.53
2019-04-07T18:39:59.510Z,21.70
2019-04-07T18:42:27.281Z,22.33
2019-04-07T18:44:58.491Z,23.17
2019-04-07T18:47:29.451Z,21.37
2019-04-07T18:50:03.959Z,20.93
2019-04-07T18:52:30.810Z,22.70
2019-04-07T18:55:05.684Z,21.10
2019-04-07T18:57:32.438Z,22.40
2019-04-07T19:00:03.932Z,20.90
2019-04-07T19:02:34.336Z,22.13
2019-04-07T19:05:05.286Z,20.37
2019-04-07T19:07:35.833Z,22.63
2019-04-07T19:10:16.475Z,22.00
2019-04-07T19:12:41.124Z,21.93
2019-04-07T19:15:12.146Z,23.73
2019-04-07T19:17:44.793Z,22.07
2019-04-07T19:20:15.673Z,22.20
2019-04-07T19:22:49.949Z,22.80
2019-04-07T19:25:19.271Z,22.27
2019-04-07T19:27:50.822Z,23.07
2019-04-07T19:30:21.286Z,23.77
2019-04-07T19:32:54.170Z,24.40
2019-04-07T19:35:23.723Z,22.27
2019-04-07T19:37:54.164Z,22.27
2019-04-07T19:40:27.714Z,22.23
2019-04-07T19:42:57.443Z,21.83
2019-04-07T19:45:26.914Z,22.73
2019-04-07T19:47:57.999Z,23.20
2019-04-07T19:50:28.651Z,22.90
2019-04-07T19:52:58.522Z,22.83
2019-04-07T19:55:30.325Z,22.57
2019-04-07T19:58:02.682Z,25.13
2019-04-07T20:00:32.929Z,24.30
2019-04-07T20:03:04.264Z,24.83
2019-04-07T20:05:34.347Z,25.77
2019-04-07T20:08:04.068Z,23.50
2019-04-07T20:10:34.438Z,24.43
2019-04-07T20:13:05.617Z,26.60
2019-04-07T20:15:40.410Z,26.27
2019-04-07T20:18:08.723Z,26.00
2019-04-07T20:20:43.279Z,27.10
2019-04-07T20:23:10.891Z,27.80
2019-04-07T20:25:45.977Z,28.40
2019-04-07T20:28:13.290Z,30.57
2019-04-07T20:30:46.958Z,29.57
2019-04-07T20:33:16.379Z,30.67
2019-04-07T20:35:46.912Z,27.47
2019-04-07T20:38:17.347Z,27.33
2019-04-07T20:40:47.898Z,27.63
2019-04-07T20:43:21.824Z,27.33
2019-04-07T20:45:50.518Z,26.83
2019-04-07T20:48:21.367Z,26.57
2019-04-07T20:50:51.841Z,28.20
2019-04-07T20:53:24.063Z,29.43
2019-04-07T20:55:56.027Z,28.13
2019-04-07T20:58:31.175Z,30.80
2019-04-07T21:01:03.835Z,32.30
2019-04-07T21:03:29.121Z,32.73
2019-04-07T21:06:00.956Z,34.93
2019-04-07T21:08:33.238Z,36.13
2019-04-07T21:11:04.669Z,33.10
2019-04-07T21:13:34.223Z,31.73
2019-04-07T21:16:04.134Z,34.63
2019-04-07T21:18:34.401Z,35.30
2019-04-07T21:21:07.042Z,34.97
2019-04-07T21:23:39.273Z,34.17
2019-04-07T21:26:10.041Z,32.87
2019-04-07T21:28:40.678Z,31.97
2019-04-07T21:31:13.290Z,32.30
2019-04-07T21:33:41.144Z,33.10
2019-04-07T21:36:12.099Z,31.53
2019-04-07T21:38:43.285Z,31.67
2019-04-07T21:41:14.415Z,32.30
2019-04-07T21:43:46.631Z,30.70
2019-04-07T21:46:22.397Z,33.10
2019-04-07T21:48:50.898Z,31.50
2019-04-07T21:51:20.763Z,31.30
2019-04-07T21:53:51.150Z,31.77
2019-04-07T21:56:22.142Z,30.33
2019-04-07T21:58:54.999Z,30.10
2019-04-07T22:01:25.057Z,30.77
2019-04-07T22:03:55.415Z,32.20
2019-04-07T22:06:27.954Z,30.50
2019-04-07T22:08:56.418Z,31.47
2019-04-07T22:11:28.137Z,31.30
2019-04-07T22:13:55.847Z,34.30
2019-04-07T22:16:25.628Z,31.40
2019-04-07T22:18:56.897Z,32.40
2019-04-07T22:21:25.811Z,34.40
2019-04-07T22:23:54.992Z,34.10
2019-04-07T22:26:24.139Z,34.97
2019-04-07T22:28:56.913Z,34.73
2019-04-07T22:31:29.068Z,31.93
2019-04-07T22:34:00.927Z,32.80
2019-04-07T22:36:29.351Z,32.27
2019-04-07T22:39:02.377Z,32.97
2019-04-07T22:41:31.627Z,33.57
2019-04-07T22:44:00.941Z,34.17
2019-04-07T22:46:31.061Z,33.40
2019-04-07T22:49:00.839Z,32.10
2019-04-07T22:51:30.686Z,31.67
2019-04-07T22:54:00.194Z,31.90
2019-04-07T22:56:31.031Z,34.03
2019-04-07T22:59:00.441Z,33.50
2019-04-07T23:01:29.522Z,34.47
2019-04-07T23:03:58.284Z,33.63
2019-04-07T23:06:28.947Z,36.60
2019-04-07T23:08:57.846Z,37.33
2019-04-07T23:11:30.065Z,39.23
2019-04-07T23:13:59.008Z,38.80
2019-04-07T23:16:27.794Z,37.50
2019-04-07T23:18:56.707Z,35.90
2019-04-07T23:21:27.916Z,36.70
2019-04-07T23:23:57.685Z,36.50
2019-04-07T23:26:26.518Z,37.60
2019-04-07T23:28:56.055Z,38.47
2019-04-07T23:31:25.139Z,35.77
2019-04-07T23:33:56.928Z,35.03
2019-04-07T23:36:28.426Z,37.23
2019-04-07T23:38:58.054Z,38.30
2019-04-07T23:41:33.983Z,37.77
2019-04-07T23:44:05.207Z,36.70
2019-04-07T23:46:34.445Z,39.00
2019-04-07T23:49:03.650Z,37.50
2019-04-07T23:51:32.498Z,36.40
2019-04-07T23:54:04.377Z,38.87
2019-04-07T23:56:33.659Z,39.17
2019-04-07T23:59:02.758Z,36.30
